sensor_id;sensor_type;location;lat;lon;timestamp;P1;durP1;ratioP1;P2;durP2;ratioP2
9166;SDS011;4618;48.818;9.088;2022-09-09T00:06:46;2.03;;;0.73;;
9166;SDS011;4618;48.818;9.088;2022-09-09T00:09:17;3.10;;;0.70;;
9166;SDS011;4618;48.818;9.088;2022-09-09T00:16:54;4.07;;;0.80;;
9166;SDS011;4618;48.818;9.088;2022-09-09T00:19:24;1.60;;;0.60;;
9166;SDS011;4618;48.818;9.088;2022-09-09T00:22:12;1.77;;;0.70;;
9166;SDS011;4618;48.818;9.088;2022-09-09T00:24:54;2.67;;;0.53;;
9166;SDS011;4618;48.818;9.088;2022-09-09T00:27:36;3.10;;;0.50;;
9166;SDS011;4618;48.818;9.088;2022-09-09T00:32:53;2.60;;;0.60;;
9166;SDS011;4618;48.818;9.088;2022-09-09T00:38:23;3.67;;;0.80;;
9166;SDS011;4618;48.818;9.088;2022-09-09T00:43:55;1.77;;;0.60;;
9166;SDS011;4618;48.818;9.088;2022-09-09T00:54:32;1.50;;;0.80;;
9166;SDS011;4618;48.818;9.088;2022-09-09T01:02:51;3.60;;;0.90;;
9166;SDS011;4618;48.818;9.088;2022-09-09T01:05:43;2.37;;;0.50;;
9166;SDS011;4618;48.818;9.088;2022-09-09T01:08:15;3.27;;;1.00;;
9166;SDS011;4618;48.818;9.088;2022-09-09T01:11:01;5.03;;;0.70;;
9166;SDS011;4618;48.818;9.088;2022-09-09T01:13:32;3.20;;;0.90;;
9166;SDS011;4618;48.818;9.088;2022-09-09T01:16:01;3.33;;;0.90;;
9166;SDS011;4618;48.818;9.088;2022-09-09T01:18:35;3.43;;;0.90;;
9166;SDS011;4618;48.818;9.088;2022-09-09T01:29:17;2.40;;;0.77;;
9166;SDS011;4618;48.818;9.088;2022-09-09T01:32:02;2.50;;;0.73;;
9166;SDS011;4618;48.818;9.088;2022-09-09T01:34:48;2.73;;;0.70;;
9166;SDS011;4618;48.818;9.088;2022-09-09T01:37:15;1.13;;;0.50;;
9166;SDS011;4618;48.818;9.088;2022-09-09T01:39:41;3.77;;;0.80;;
9166;SDS011;4618;48.818;9.088;2022-09-09T01:42:10;3.90;;;0.60;;
9166;SDS011;4618;48.818;9.088;2022-09-09T01:44:38;3.70;;;0.67;;
9166;SDS011;4618;48.818;9.088;2022-09-09T01:47:04;2.13;;;0.63;;
9166;SDS011;4618;48.818;9.088;2022-09-09T01:49:31;3.00;;;0.70;;
9166;SDS011;4618;48.818;9.088;2022-09-09T01:51:57;1.40;;;0.70;;
9166;SDS011;4618;48.818;9.088;2022-09-09T01:54:26;1.90;;;0.80;;
9166;SDS011;4618;48.818;9.088;2022-09-09T01:56:59;1.10;;;0.80;;
9166;SDS011;4618;48.818;9.088;2022-09-09T02:04:47;2.40;;;0.80;;
9166;SDS011;4618;48.818;9.088;2022-09-09T02:07:28;1.43;;;0.60;;
9166;SDS011;4618;48.818;9.088;2022-09-09T02:10:12;3.23;;;0.77;;
9166;SDS011;4618;48.818;9.088;2022-09-09T02:12:46;3.50;;;0.70;;
9166;SDS011;4618;48.818;9.088;2022-09-09T02:15:17;1.53;;;0.70;;
9166;SDS011;4618;48.818;9.088;2022-09-09T02:17:57;0.70;;;0.50;;
9166;SDS011;4618;48.818;9.088;2022-09-09T02:20:26;2.97;;;0.90;;
9166;SDS011;4618;48.818;9.088;2022-09-09T02:22:58;1.93;;;0.50;;
9166;SDS011;4618;48.818;9.088;2022-09-09T02:25:25;2.17;;;0.70;;
9166;SDS011;4618;48.818;9.088;2022-09-09T02:27:54;3.50;;;0.70;;
9166;SDS011;4618;48.818;9.088;2022-09-09T02:30:20;2.37;;;0.77;;
9166;SDS011;4618;48.818;9.088;2022-09-09T02:32:47;2.23;;;0.73;;
9166;SDS011;4618;48.818;9.088;2022-09-09T02:35:17;4.73;;;0.80;;
9166;SDS011;4618;48.818;9.088;2022-09-09T02:37:46;2.70;;;0.70;;
9166;SDS011;4618;48.818;9.088;2022-09-09T02:40:12;2.10;;;0.60;;
9166;SDS011;4618;48.818;9.088;2022-09-09T02:42:40;1.23;;;0.60;;
9166;SDS011;4618;48.818;9.088;2022-09-09T02:45:12;2.47;;;0.67;;
9166;SDS011;4618;48.818;9.088;2022-09-09T02:53:32;0.63;;;0.40;;
9166;SDS011;4618;48.818;9.088;2022-09-09T02:56:09;0.60;;;0.33;;
9166;SDS011;4618;48.818;9.088;2022-09-09T02:58:40;1.47;;;0.60;;
9166;SDS011;4618;48.818;9.088;2022-09-09T03:01:06;1.57;;;0.50;;
9166;SDS011;4618;48.818;9.088;2022-09-09T03:03:33;3.17;;;0.60;;
9166;SDS011;4618;48.818;9.088;2022-09-09T03:05:59;1.60;;;0.60;;
9166;SDS011;4618;48.818;9.088;2022-09-09T03:08:25;1.33;;;0.60;;
9166;SDS011;4618;48.818;9.088;2022-09-09T03:10:53;2.37;;;0.60;;
9166;SDS011;4618;48.818;9.088;2022-09-09T03:13:19;1.23;;;0.53;;
9166;SDS011;4618;48.818;9.088;2022-09-09T03:15:45;2.17;;;0.70;;
9166;SDS011;4618;48.818;9.088;2022-09-09T03:18:13;1.60;;;0.70;;
9166;SDS011;4618;48.818;9.088;2022-09-09T03:20:38;1.40;;;0.60;;
9166;SDS011;4618;48.818;9.088;2022-09-09T03:23:05;1.17;;;0.50;;
9166;SDS011;4618;48.818;9.088;2022-09-09T03:25:30;1.33;;;0.50;;
9166;SDS011;4618;48.818;9.088;2022-09-09T03:27:57;2.07;;;0.40;;
9166;SDS011;4618;48.818;9.088;2022-09-09T03:30:23;1.40;;;0.60;;
9166;SDS011;4618;48.818;9.088;2022-09-09T03:32:51;4.87;;;0.50;;
9166;SDS011;4618;48.818;9.088;2022-09-09T03:35:17;1.33;;;0.50;;
9166;SDS011;4618;48.818;9.088;2022-09-09T03:37:43;1.33;;;0.50;;
9166;SDS011;4618;48.818;9.088;2022-09-09T03:40:09;0.90;;;0.50;;
9166;SDS011;4618;48.818;9.088;2022-09-09T03:42:35;1.43;;;0.50;;
9166;SDS011;4618;48.818;9.088;2022-09-09T03:45:02;1.63;;;0.50;;
9166;SDS011;4618;48.818;9.088;2022-09-09T03:47:32;2.37;;;0.50;;
9166;SDS011;4618;48.818;9.088;2022-09-09T03:49:58;3.70;;;0.60;;
9166;SDS011;4618;48.818;9.088;2022-09-09T03:52:24;1.30;;;0.30;;
9166;SDS011;4618;48.818;9.088;2022-09-09T03:54:51;0.93;;;0.50;;
9166;SDS011;4618;48.818;9.088;2022-09-09T03:57:17;0.97;;;0.40;;
9166;SDS011;4618;48.818;9.088;2022-09-09T03:59:43;2.20;;;0.50;;
9166;SDS011;4618;48.818;9.088;2022-09-09T04:02:09;1.13;;;0.40;;
9166;SDS011;4618;48.818;9.088;2022-09-09T04:04:35;2.70;;;0.60;;
9166;SDS011;4618;48.818;9.088;2022-09-09T04:07:01;1.33;;;0.40;;
9166;SDS011;4618;48.818;9.088;2022-09-09T04:09:26;1.53;;;0.30;;
9166;SDS011;4618;48.818;9.088;2022-09-09T04:11:52;2.23;;;0.40;;
9166;SDS011;4618;48.818;9.088;2022-09-09T04:14:18;1.50;;;0.60;;
9166;SDS011;4618;48.818;9.088;2022-09-09T04:16:44;3.00;;;0.50;;
9166;SDS011;4618;48.818;9.088;2022-09-09T04:19:10;1.83;;;0.53;;
9166;SDS011;4618;48.818;9.088;2022-09-09T04:21:38;1.17;;;0.40;;
9166;SDS011;4618;48.818;9.088;2022-09-09T04:24:07;2.37;;;0.50;;
9166;SDS011;4618;48.818;9.088;2022-09-09T04:26:34;2.33;;;0.70;;
9166;SDS011;4618;48.818;9.088;2022-09-09T04:29:01;0.67;;;0.50;;
9166;SDS011;4618;48.818;9.088;2022-09-09T04:31:28;3.43;;;0.60;;
9166;SDS011;4618;48.818;9.088;2022-09-09T04:33:54;3.10;;;0.50;;
9166;SDS011;4618;48.818;9.088;2022-09-09T04:36:19;1.90;;;0.50;;
9166;SDS011;4618;48.818;9.088;2022-09-09T04:38:45;3.20;;;0.43;;
9166;SDS011;4618;48.818;9.088;2022-09-09T04:41:11;1.07;;;0.50;;
9166;SDS011;4618;48.818;9.088;2022-09-09T04:43:37;3.03;;;0.50;;
9166;SDS011;4618;48.818;9.088;2022-09-09T04:46:04;3.13;;;0.80;;
9166;SDS011;4618;48.818;9.088;2022-09-09T04:48:29;1.33;;;0.70;;
9166;SDS011;4618;48.818;9.088;2022-09-09T04:51:04;2.90;;;0.60;;
9166;SDS011;4618;48.818;9.088;2022-09-09T04:53:30;1.10;;;0.60;;
9166;SDS011;4618;48.818;9.088;2022-09-09T04:58:28;3.07;;;0.57;;
9166;SDS011;4618;48.818;9.088;2022-09-09T05:00:53;1.43;;;0.70;;
9166;SDS011;4618;48.818;9.088;2022-09-09T05:03:19;1.73;;;0.67;;
9166;SDS011;4618;48.818;9.088;2022-09-09T05:05:44;2.50;;;0.50;;
9166;SDS011;4618;48.818;9.088;2022-09-09T05:08:10;2.87;;;0.50;;
9166;SDS011;4618;48.818;9.088;2022-09-09T05:10:37;1.73;;;0.60;;
9166;SDS011;4618;48.818;9.088;2022-09-09T05:13:04;1.07;;;0.47;;
9166;SDS011;4618;48.818;9.088;2022-09-09T05:15:30;2.33;;;0.60;;
9166;SDS011;4618;48.818;9.088;2022-09-09T05:17:57;2.50;;;0.70;;
9166;SDS011;4618;48.818;9.088;2022-09-09T05:20:24;1.73;;;0.63;;
9166;SDS011;4618;48.818;9.088;2022-09-09T05:22:52;0.83;;;0.60;;
9166;SDS011;4618;48.818;9.088;2022-09-09T05:25:21;1.17;;;0.83;;
9166;SDS011;4618;48.818;9.088;2022-09-09T05:27:47;1.93;;;0.90;;
9166;SDS011;4618;48.818;9.088;2022-09-09T05:30:13;1.30;;;0.70;;
9166;SDS011;4618;48.818;9.088;2022-09-09T05:32:38;2.20;;;0.70;;
9166;SDS011;4618;48.818;9.088;2022-09-09T05:35:05;2.03;;;0.60;;
9166;SDS011;4618;48.818;9.088;2022-09-09T05:37:31;1.37;;;0.60;;
9166;SDS011;4618;48.818;9.088;2022-09-09T05:39:56;2.70;;;0.70;;
9166;SDS011;4618;48.818;9.088;2022-09-09T05:42:23;2.50;;;0.60;;
9166;SDS011;4618;48.818;9.088;2022-09-09T05:44:48;3.90;;;0.77;;
9166;SDS011;4618;48.818;9.088;2022-09-09T05:47:15;4.27;;;0.80;;
9166;SDS011;4618;48.818;9.088;2022-09-09T05:49:42;2.30;;;0.60;;
9166;SDS011;4618;48.818;9.088;2022-09-09T05:52:07;2.63;;;0.87;;
9166;SDS011;4618;48.818;9.088;2022-09-09T05:54:34;1.50;;;0.70;;
9166;SDS011;4618;48.818;9.088;2022-09-09T05:57:01;3.77;;;0.70;;
9166;SDS011;4618;48.818;9.088;2022-09-09T05:59:27;1.40;;;0.70;;
9166;SDS011;4618;48.818;9.088;2022-09-09T06:01:53;4.10;;;0.80;;
9166;SDS011;4618;48.818;9.088;2022-09-09T06:04:19;2.33;;;0.67;;
9166;SDS011;4618;48.818;9.088;2022-09-09T06:06:49;1.90;;;0.60;;
9166;SDS011;4618;48.818;9.088;2022-09-09T06:09:14;1.33;;;0.50;;
9166;SDS011;4618;48.818;9.088;2022-09-09T06:11:40;0.70;;;0.43;;
9166;SDS011;4618;48.818;9.088;2022-09-09T06:14:07;1.70;;;0.50;;
9166;SDS011;4618;48.818;9.088;2022-09-09T06:16:33;1.77;;;0.60;;
9166;SDS011;4618;48.818;9.088;2022-09-09T06:19:00;2.17;;;0.90;;
9166;SDS011;4618;48.818;9.088;2022-09-09T06:21:27;3.07;;;1.00;;
9166;SDS011;4618;48.818;9.088;2022-09-09T06:23:55;4.60;;;0.90;;
9166;SDS011;4618;48.818;9.088;2022-09-09T06:26:30;4.73;;;0.80;;
9166;SDS011;4618;48.818;9.088;2022-09-09T06:28:58;1.20;;;0.60;;
9166;SDS011;4618;48.818;9.088;2022-09-09T06:31:25;4.33;;;0.50;;
9166;SDS011;4618;48.818;9.088;2022-09-09T06:33:55;3.50;;;0.80;;
9166;SDS011;4618;48.818;9.088;2022-09-09T06:38:49;2.87;;;0.80;;
9166;SDS011;4618;48.818;9.088;2022-09-09T06:41:16;1.93;;;0.70;;
9166;SDS011;4618;48.818;9.088;2022-09-09T06:43:43;2.03;;;0.90;;
9166;SDS011;4618;48.818;9.088;2022-09-09T06:46:18;3.67;;;0.80;;
9166;SDS011;4618;48.818;9.088;2022-09-09T06:48:46;1.30;;;0.90;;
9166;SDS011;4618;48.818;9.088;2022-09-09T06:51:13;3.20;;;0.80;;
9166;SDS011;4618;48.818;9.088;2022-09-09T06:53:41;2.50;;;0.67;;
9166;SDS011;4618;48.818;9.088;2022-09-09T06:56:19;3.80;;;0.70;;
9166;SDS011;4618;48.818;9.088;2022-09-09T06:58:48;5.50;;;0.73;;
9166;SDS011;4618;48.818;9.088;2022-09-09T07:01:16;2.10;;;0.70;;
9166;SDS011;4618;48.818;9.088;2022-09-09T07:03:48;2.30;;;0.80;;
9166;SDS011;4618;48.818;9.088;2022-09-09T07:06:19;3.10;;;0.90;;
9166;SDS011;4618;48.818;9.088;2022-09-09T07:08:53;2.73;;;0.83;;
9166;SDS011;4618;48.818;9.088;2022-09-09T07:11:24;3.87;;;1.03;;
9166;SDS011;4618;48.818;9.088;2022-09-09T07:13:51;7.80;;;1.30;;
9166;SDS011;4618;48.818;9.088;2022-09-09T07:16:17;2.10;;;0.83;;
9166;SDS011;4618;48.818;9.088;2022-09-09T07:18:45;1.43;;;0.70;;
9166;SDS011;4618;48.818;9.088;2022-09-09T07:21:11;4.43;;;0.90;;
9166;SDS011;4618;48.818;9.088;2022-09-09T07:23:38;2.77;;;0.90;;
9166;SDS011;4618;48.818;9.088;2022-09-09T07:26:12;2.20;;;0.83;;
9166;SDS011;4618;48.818;9.088;2022-09-09T07:28:39;2.93;;;0.80;;
9166;SDS011;4618;48.818;9.088;2022-09-09T07:31:06;2.03;;;0.90;;
9166;SDS011;4618;48.818;9.088;2022-09-09T07:33:38;1.67;;;0.77;;
9166;SDS011;4618;48.818;9.088;2022-09-09T07:36:09;4.83;;;0.90;;
9166;SDS011;4618;48.818;9.088;2022-09-09T07:38:45;2.57;;;0.77;;
9166;SDS011;4618;48.818;9.088;2022-09-09T07:41:13;3.00;;;0.90;;
9166;SDS011;4618;48.818;9.088;2022-09-09T07:43:41;2.97;;;0.77;;
9166;SDS011;4618;48.818;9.088;2022-09-09T07:46:08;2.60;;;0.80;;
9166;SDS011;4618;48.818;9.088;2022-09-09T07:48:35;2.67;;;0.90;;
9166;SDS011;4618;48.818;9.088;2022-09-09T07:51:14;1.67;;;0.70;;
9166;SDS011;4618;48.818;9.088;2022-09-09T07:53:44;2.00;;;0.80;;
9166;SDS011;4618;48.818;9.088;2022-09-09T07:56:13;1.67;;;0.70;;
9166;SDS011;4618;48.818;9.088;2022-09-09T07:58:41;4.67;;;0.90;;
9166;SDS011;4618;48.818;9.088;2022-09-09T08:01:14;1.77;;;0.70;;
9166;SDS011;4618;48.818;9.088;2022-09-09T08:03:43;0.90;;;0.57;;
9166;SDS011;4618;48.818;9.088;2022-09-09T08:06:10;5.60;;;0.63;;
9166;SDS011;4618;48.818;9.088;2022-09-09T08:08:37;2.83;;;0.70;;
9166;SDS011;4618;48.818;9.088;2022-09-09T08:11:13;1.07;;;0.57;;
9166;SDS011;4618;48.818;9.088;2022-09-09T08:13:40;6.10;;;0.60;;
9166;SDS011;4618;48.818;9.088;2022-09-09T08:16:12;2.37;;;0.90;;
9166;SDS011;4618;48.818;9.088;2022-09-09T08:18:40;2.73;;;1.00;;
9166;SDS011;4618;48.818;9.088;2022-09-09T08:21:07;2.00;;;0.80;;
9166;SDS011;4618;48.818;9.088;2022-09-09T08:23:36;2.10;;;0.60;;
9166;SDS011;4618;48.818;9.088;2022-09-09T08:26:07;2.10;;;0.50;;
9166;SDS011;4618;48.818;9.088;2022-09-09T08:28:42;1.77;;;0.40;;
9166;SDS011;4618;48.818;9.088;2022-09-09T08:31:18;2.47;;;0.67;;
9166;SDS011;4618;48.818;9.088;2022-09-09T08:33:46;2.53;;;0.60;;
9166;SDS011;4618;48.818;9.088;2022-09-09T08:36:18;1.83;;;0.60;;
9166;SDS011;4618;48.818;9.088;2022-09-09T08:38:48;2.33;;;0.50;;
9166;SDS011;4618;48.818;9.088;2022-09-09T08:53:04;1.40;;;0.60;;
9166;SDS011;4618;48.818;9.088;2022-09-09T08:55:52;3.97;;;0.80;;
9166;SDS011;4618;48.818;9.088;2022-09-09T08:58:34;1.88;;;0.60;;
9166;SDS011;4618;48.818;9.088;2022-09-09T09:06:35;1.10;;;0.63;;
9166;SDS011;4618;48.818;9.088;2022-09-09T09:09:46;5.07;;;0.73;;
9166;SDS011;4618;48.818;9.088;2022-09-09T09:12:27;1.57;;;0.50;;
9166;SDS011;4618;48.818;9.088;2022-09-09T09:14:57;2.47;;;0.83;;
9166;SDS011;4618;48.818;9.088;2022-09-09T09:17:25;3.07;;;0.80;;
9166;SDS011;4618;48.818;9.088;2022-09-09T09:19:52;3.27;;;0.90;;
9166;SDS011;4618;48.818;9.088;2022-09-09T09:22:22;3.17;;;0.70;;
9166;SDS011;4618;48.818;9.088;2022-09-09T09:27:49;3.70;;;0.77;;
9166;SDS011;4618;48.818;9.088;2022-09-09T09:30:26;1.83;;;0.53;;
9166;SDS011;4618;48.818;9.088;2022-09-09T09:33:02;3.37;;;0.87;;
9166;SDS011;4618;48.818;9.088;2022-09-09T09:35:37;1.87;;;0.67;;
9166;SDS011;4618;48.818;9.088;2022-09-09T09:38:11;3.10;;;1.10;;
9166;SDS011;4618;48.818;9.088;2022-09-09T09:40:52;1.47;;;0.63;;
9166;SDS011;4618;48.818;9.088;2022-09-09T09:43:29;4.70;;;0.63;;
9166;SDS011;4618;48.818;9.088;2022-09-09T09:46:00;0.93;;;0.40;;
9166;SDS011;4618;48.818;9.088;2022-09-09T09:48:28;3.80;;;0.67;;
9166;SDS011;4618;48.818;9.088;2022-09-09T09:53:26;3.10;;;0.40;;
9166;SDS011;4618;48.818;9.088;2022-09-09T09:55:55;1.50;;;0.57;;
9166;SDS011;4618;48.818;9.088;2022-09-09T09:58:26;1.02;;;0.38;;
9166;SDS011;4618;48.818;9.088;2022-09-09T10:00:58;3.28;;;0.47;;
9166;SDS011;4618;48.818;9.088;2022-09-09T10:03:29;1.38;;;0.50;;
9166;SDS011;4618;48.818;9.088;2022-09-09T10:06:05;0.73;;;0.45;;
9166;SDS011;4618;48.818;9.088;2022-09-09T10:08:33;1.42;;;0.30;;
9166;SDS011;4618;48.818;9.088;2022-09-09T10:11:02;2.45;;;0.43;;
9166;SDS011;4618;48.818;9.088;2022-09-09T10:17:00;1.65;;;0.60;;
9166;SDS011;4618;48.818;9.088;2022-09-09T10:19:55;3.95;;;0.60;;
9166;SDS011;4618;48.818;9.088;2022-09-09T10:22:39;3.80;;;0.63;;
9166;SDS011;4618;48.818;9.088;2022-09-09T10:28:10;1.13;;;0.63;;
9166;SDS011;4618;48.818;9.088;2022-09-09T10:33:35;2.17;;;1.00;;
9166;SDS011;4618;48.818;9.088;2022-09-09T10:36:13;1.90;;;0.70;;
9166;SDS011;4618;48.818;9.088;2022-09-09T10:42:06;1.23;;;0.63;;
9166;SDS011;4618;48.818;9.088;2022-09-09T10:47:15;2.10;;;0.60;;
9166;SDS011;4618;48.818;9.088;2022-09-09T10:50:37;2.10;;;0.50;;
9166;SDS011;4618;48.818;9.088;2022-09-09T10:53:34;4.72;;;0.70;;
9166;SDS011;4618;48.818;9.088;2022-09-09T10:56:15;2.05;;;0.50;;
9166;SDS011;4618;48.818;9.088;2022-09-09T11:01:43;3.30;;;0.40;;
9166;SDS011;4618;48.818;9.088;2022-09-09T11:04:19;2.47;;;0.63;;
9166;SDS011;4618;48.818;9.088;2022-09-09T11:06:55;4.50;;;0.87;;
9166;SDS011;4618;48.818;9.088;2022-09-09T11:09:25;3.40;;;0.90;;
9166;SDS011;4618;48.818;9.088;2022-09-09T11:11:56;2.93;;;0.83;;
9166;SDS011;4618;48.818;9.088;2022-09-09T11:14:43;4.20;;;0.80;;
9166;SDS011;4618;48.818;9.088;2022-09-09T11:17:36;2.63;;;0.50;;
9166;SDS011;4618;48.818;9.088;2022-09-09T11:22:45;2.33;;;0.60;;
9166;SDS011;4618;48.818;9.088;2022-09-09T11:25:17;3.63;;;0.70;;
9166;SDS011;4618;48.818;9.088;2022-09-09T11:28:03;5.83;;;0.87;;
9166;SDS011;4618;48.818;9.088;2022-09-09T11:44:38;2.33;;;0.37;;
9166;SDS011;4618;48.818;9.088;2022-09-09T11:47:04;1.30;;;0.40;;
9166;SDS011;4618;48.818;9.088;2022-09-09T11:49:47;1.23;;;0.30;;
9166;SDS011;4618;48.818;9.088;2022-09-09T11:52:21;0.30;;;0.20;;
9166;SDS011;4618;48.818;9.088;2022-09-09T11:54:50;0.57;;;0.30;;
9166;SDS011;4618;48.818;9.088;2022-09-09T11:57:23;2.33;;;0.40;;
9166;SDS011;4618;48.818;9.088;2022-09-09T11:59:53;1.70;;;0.50;;
9166;SDS011;4618;48.818;9.088;2022-09-09T12:02:23;1.77;;;0.20;;
9166;SDS011;4618;48.818;9.088;2022-09-09T12:07:40;0.50;;;0.30;;
9166;SDS011;4618;48.818;9.088;2022-09-09T12:10:27;1.03;;;0.10;;
9166;SDS011;4618;48.818;9.088;2022-09-09T12:13:07;3.17;;;0.37;;
9166;SDS011;4618;48.818;9.088;2022-09-09T12:15:47;1.63;;;0.40;;
9166;SDS011;4618;48.818;9.088;2022-09-09T12:18:18;1.63;;;0.40;;
9166;SDS011;4618;48.818;9.088;2022-09-09T12:21:00;0.90;;;0.30;;
9166;SDS011;4618;48.818;9.088;2022-09-09T12:23:30;0.80;;;0.40;;
9166;SDS011;4618;48.818;9.088;2022-09-09T12:32:05;0.50;;;0.20;;
9166;SDS011;4618;48.818;9.088;2022-09-09T12:34:41;1.00;;;0.30;;
9166;SDS011;4618;48.818;9.088;2022-09-09T12:39:59;1.47;;;0.37;;
9166;SDS011;4618;48.818;9.088;2022-09-09T12:42:29;0.73;;;0.30;;
9166;SDS011;4618;48.818;9.088;2022-09-09T12:45:00;1.03;;;0.20;;
9166;SDS011;4618;48.818;9.088;2022-09-09T12:50:27;0.43;;;0.13;;
9166;SDS011;4618;48.818;9.088;2022-09-09T12:53:33;2.20;;;0.30;;
9166;SDS011;4618;48.818;9.088;2022-09-09T12:56:04;1.10;;;0.20;;
9166;SDS011;4618;48.818;9.088;2022-09-09T12:58:35;1.40;;;0.20;;
9166;SDS011;4618;48.818;9.088;2022-09-09T13:01:03;2.17;;;0.40;;
9166;SDS011;4618;48.818;9.088;2022-09-09T13:03:30;2.87;;;0.40;;
9166;SDS011;4618;48.818;9.088;2022-09-09T13:05:58;2.27;;;0.40;;
9166;SDS011;4618;48.818;9.088;2022-09-09T13:08:45;2.17;;;0.40;;
9166;SDS011;4618;48.818;9.088;2022-09-09T13:11:12;2.50;;;0.40;;
9166;SDS011;4618;48.818;9.088;2022-09-09T13:13:42;1.07;;;0.30;;
9166;SDS011;4618;48.818;9.088;2022-09-09T13:16:20;1.67;;;0.30;;
9166;SDS011;4618;48.818;9.088;2022-09-09T13:18:57;1.97;;;0.60;;
9166;SDS011;4618;48.818;9.088;2022-09-09T13:21:37;0.40;;;0.40;;
9166;SDS011;4618;48.818;9.088;2022-09-09T13:24:19;1.80;;;0.50;;
9166;SDS011;4618;48.818;9.088;2022-09-09T13:26:55;0.57;;;0.20;;
9166;SDS011;4618;48.818;9.088;2022-09-09T13:29:29;1.47;;;0.40;;
9166;SDS011;4618;48.818;9.088;2022-09-09T13:32:06;0.43;;;0.30;;
9166;SDS011;4618;48.818;9.088;2022-09-09T13:34:49;2.43;;;0.23;;
9166;SDS011;4618;48.818;9.088;2022-09-09T13:37:28;1.63;;;0.30;;
9166;SDS011;4618;48.818;9.088;2022-09-09T13:39:58;1.50;;;0.37;;
9166;SDS011;4618;48.818;9.088;2022-09-09T13:42:28;0.20;;;0.20;;
9166;SDS011;4618;48.818;9.088;2022-09-09T13:44:56;1.03;;;0.50;;
9166;SDS011;4618;48.818;9.088;2022-09-09T13:47:43;0.53;;;0.20;;
9166;SDS011;4618;48.818;9.088;2022-09-09T13:50:18;1.40;;;0.40;;
9166;SDS011;4618;48.818;9.088;2022-09-09T13:52:46;2.73;;;0.30;;
9166;SDS011;4618;48.818;9.088;2022-09-09T13:55:16;1.43;;;0.40;;
9166;SDS011;4618;48.818;9.088;2022-09-09T13:57:53;1.65;;;0.40;;
9166;SDS011;4618;48.818;9.088;2022-09-09T14:00:20;1.10;;;0.30;;
9166;SDS011;4618;48.818;9.088;2022-09-09T14:02:47;2.28;;;0.40;;
9166;SDS011;4618;48.818;9.088;2022-09-09T14:05:13;2.80;;;0.40;;
9166;SDS011;4618;48.818;9.088;2022-09-09T14:07:40;0.60;;;0.40;;
9166;SDS011;4618;48.818;9.088;2022-09-09T14:10:08;0.88;;;0.30;;
9166;SDS011;4618;48.818;9.088;2022-09-09T14:12:34;2.28;;;0.50;;
9166;SDS011;4618;48.818;9.088;2022-09-09T14:15:01;0.80;;;0.40;;
9166;SDS011;4618;48.818;9.088;2022-09-09T14:17:27;0.52;;;0.30;;
9166;SDS011;4618;48.818;9.088;2022-09-09T14:19:56;1.05;;;0.32;;
9166;SDS011;4618;48.818;9.088;2022-09-09T14:22:22;2.00;;;0.30;;
9166;SDS011;4618;48.818;9.088;2022-09-09T14:24:48;1.67;;;0.50;;
9166;SDS011;4618;48.818;9.088;2022-09-09T14:27:14;1.27;;;0.40;;
9166;SDS011;4618;48.818;9.088;2022-09-09T14:29:40;0.80;;;0.20;;
9166;SDS011;4618;48.818;9.088;2022-09-09T14:32:08;2.00;;;0.30;;
9166;SDS011;4618;48.818;9.088;2022-09-09T14:34:33;1.03;;;0.23;;
9166;SDS011;4618;48.818;9.088;2022-09-09T14:37:00;2.80;;;0.47;;
9166;SDS011;4618;48.818;9.088;2022-09-09T14:39:26;0.47;;;0.30;;
9166;SDS011;4618;48.818;9.088;2022-09-09T14:41:51;1.40;;;0.30;;
9166;SDS011;4618;48.818;9.088;2022-09-09T14:44:17;1.53;;;0.17;;
9166;SDS011;4618;48.818;9.088;2022-09-09T14:46:43;0.30;;;0.20;;
9166;SDS011;4618;48.818;9.088;2022-09-09T14:49:08;0.67;;;0.50;;
9166;SDS011;4618;48.818;9.088;2022-09-09T14:51:35;1.70;;;0.37;;
9166;SDS011;4618;48.818;9.088;2022-09-09T14:54:01;1.60;;;0.30;;
9166;SDS011;4618;48.818;9.088;2022-09-09T14:56:31;0.43;;;0.30;;
9166;SDS011;4618;48.818;9.088;2022-09-09T14:58:59;1.48;;;0.32;;
9166;SDS011;4618;48.818;9.088;2022-09-09T15:01:26;1.48;;;0.40;;
9166;SDS011;4618;48.818;9.088;2022-09-09T15:03:53;0.80;;;0.23;;
9166;SDS011;4618;48.818;9.088;2022-09-09T15:06:20;0.47;;;0.20;;
9166;SDS011;4618;48.818;9.088;2022-09-09T15:08:50;1.93;;;0.20;;
9166;SDS011;4618;48.818;9.088;2022-09-09T15:11:17;0.87;;;0.27;;
9166;SDS011;4618;48.818;9.088;2022-09-09T15:13:43;0.30;;;0.10;;
9166;SDS011;4618;48.818;9.088;2022-09-09T15:16:13;0.67;;;0.30;;
9166;SDS011;4618;48.818;9.088;2022-09-09T15:18:40;0.37;;;0.27;;
9166;SDS011;4618;48.818;9.088;2022-09-09T15:21:13;0.50;;;0.20;;
9166;SDS011;4618;48.818;9.088;2022-09-09T15:23:41;1.47;;;0.30;;
9166;SDS011;4618;48.818;9.088;2022-09-09T15:26:08;0.83;;;0.20;;
9166;SDS011;4618;48.818;9.088;2022-09-09T15:28:34;0.20;;;0.20;;
9166;SDS011;4618;48.818;9.088;2022-09-09T15:31:04;1.13;;;0.40;;
9166;SDS011;4618;48.818;9.088;2022-09-09T15:33:51;0.70;;;0.30;;
9166;SDS011;4618;48.818;9.088;2022-09-09T15:36:26;1.97;;;0.40;;
9166;SDS011;4618;48.818;9.088;2022-09-09T15:38:54;3.37;;;0.47;;
9166;SDS011;4618;48.818;9.088;2022-09-09T15:41:20;1.30;;;0.30;;
9166;SDS011;4618;48.818;9.088;2022-09-09T15:43:48;0.70;;;0.30;;
9166;SDS011;4618;48.818;9.088;2022-09-09T15:46:22;2.23;;;0.40;;
9166;SDS011;4618;48.818;9.088;2022-09-09T15:48:52;2.83;;;0.40;;
9166;SDS011;4618;48.818;9.088;2022-09-09T15:51:19;1.10;;;0.30;;
9166;SDS011;4618;48.818;9.088;2022-09-09T15:53:45;1.53;;;0.50;;
9166;SDS011;4618;48.818;9.088;2022-09-09T15:56:11;2.30;;;0.57;;
9166;SDS011;4618;48.818;9.088;2022-09-09T15:58:36;2.10;;;0.57;;
9166;SDS011;4618;48.818;9.088;2022-09-09T16:01:03;0.97;;;0.43;;
9166;SDS011;4618;48.818;9.088;2022-09-09T16:03:36;1.57;;;0.40;;
9166;SDS011;4618;48.818;9.088;2022-09-09T16:06:03;3.23;;;0.60;;
9166;SDS011;4618;48.818;9.088;2022-09-09T16:08:33;1.83;;;0.40;;
9166;SDS011;4618;48.818;9.088;2022-09-09T16:13:34;2.60;;;0.60;;
9166;SDS011;4618;48.818;9.088;2022-09-09T16:16:04;1.23;;;0.40;;
9166;SDS011;4618;48.818;9.088;2022-09-09T16:18:41;1.60;;;0.47;;
9166;SDS011;4618;48.818;9.088;2022-09-09T16:21:13;3.23;;;0.20;;
9166;SDS011;4618;48.818;9.088;2022-09-09T16:23:49;5.40;;;0.57;;
9166;SDS011;4618;48.818;9.088;2022-09-09T16:26:16;5.20;;;0.30;;
9166;SDS011;4618;48.818;9.088;2022-09-09T16:28:42;3.97;;;0.33;;
9166;SDS011;4618;48.818;9.088;2022-09-09T16:31:09;0.50;;;0.20;;
9166;SDS011;4618;48.818;9.088;2022-09-09T16:33:38;1.17;;;0.30;;
9166;SDS011;4618;48.818;9.088;2022-09-09T16:36:05;0.20;;;0.20;;
9166;SDS011;4618;48.818;9.088;2022-09-09T16:38:32;0.43;;;0.20;;
9166;SDS011;4618;48.818;9.088;2022-09-09T16:40:59;0.43;;;0.10;;
9166;SDS011;4618;48.818;9.088;2022-09-09T16:43:25;1.03;;;0.20;;
9166;SDS011;4618;48.818;9.088;2022-09-09T16:45:50;0.77;;;0.10;;
9166;SDS011;4618;48.818;9.088;2022-09-09T16:48:16;0.23;;;0.13;;
9166;SDS011;4618;48.818;9.088;2022-09-09T16:50:42;1.93;;;0.20;;
9166;SDS011;4618;48.818;9.088;2022-09-09T16:53:07;2.70;;;0.20;;
9166;SDS011;4618;48.818;9.088;2022-09-09T16:55:37;0.10;;;0.10;;
9166;SDS011;4618;48.818;9.088;2022-09-09T16:58:04;0.10;;;0.10;;
9166;SDS011;4618;48.818;9.088;2022-09-09T17:00:30;0.60;;;0.10;;
9166;SDS011;4618;48.818;9.088;2022-09-09T17:02:55;1.10;;;0.20;;
9166;SDS011;4618;48.818;9.088;2022-09-09T17:05:21;0.30;;;0.10;;
9166;SDS011;4618;48.818;9.088;2022-09-09T17:07:48;0.40;;;0.20;;
9166;SDS011;4618;48.818;9.088;2022-09-09T17:10:13;0.10;;;0.10;;
9166;SDS011;4618;48.818;9.088;2022-09-09T17:12:39;0.30;;;0.20;;
9166;SDS011;4618;48.818;9.088;2022-09-09T17:15:06;1.23;;;0.20;;
9166;SDS011;4618;48.818;9.088;2022-09-09T17:17:32;0.23;;;0.20;;
9166;SDS011;4618;48.818;9.088;2022-09-09T17:19:58;1.23;;;0.50;;
9166;SDS011;4618;48.818;9.088;2022-09-09T17:22:24;0.70;;;0.30;;
9166;SDS011;4618;48.818;9.088;2022-09-09T17:24:51;0.47;;;0.20;;
9166;SDS011;4618;48.818;9.088;2022-09-09T17:27:17;0.50;;;0.27;;
9166;SDS011;4618;48.818;9.088;2022-09-09T17:29:42;0.93;;;0.40;;
9166;SDS011;4618;48.818;9.088;2022-09-09T17:32:08;1.43;;;0.50;;
9166;SDS011;4618;48.818;9.088;2022-09-09T17:34:34;0.87;;;0.20;;
9166;SDS011;4618;48.818;9.088;2022-09-09T17:37:00;1.00;;;0.30;;
9166;SDS011;4618;48.818;9.088;2022-09-09T17:39:25;1.63;;;0.50;;
9166;SDS011;4618;48.818;9.088;2022-09-09T17:41:51;0.40;;;0.40;;
9166;SDS011;4618;48.818;9.088;2022-09-09T17:44:17;0.63;;;0.30;;
9166;SDS011;4618;48.818;9.088;2022-09-09T17:46:44;1.07;;;0.37;;